Time;durP1;ratioP1;P1;durP2;ratioP2;P2;SDS_P1;SDS_P2;PMS_P1;PMS_P2;Temp;Humidity;BMP_temperature;BMP_pressure;BME280_temperature;BME280_humidity;BME280_pressure;Samples;Min_cycle;Max_cycle;Signal;HPM_P1;HPM_P2
2021/09/07 00:00:12;;;;;;;16.73;12.25;;;;;;;13.99;100.00;102266.75;10457353;28;20051;-75
2021/09/07 00:05:14;;;;;;;25.55;13.25;;;;;;;14.04;100.00;102265.16;10459124;28;20049;-75
2021/09/07 00:10:16;;;;;;;16.67;12.70;;;;;;;14.06;100.00;102261.72;10457593;28;20048;-75
2021/09/07 00:15:19;;;;;;;16.75;12.07;;;;;;;14.02;100.00;102262.53;10457217;28;20049;-74
2021/09/07 00:20:23;;;;;;;17.70;12.30;;;;;;;14.08;100.00;102255.72;10461397;28;20057;-74
2021/09/07 00:25:24;;;;;;;17.60;12.20;;;;;;;14.02;100.00;102252.13;10457048;28;20049;-74
2021/09/07 00:30:26;;;;;;;19.02;13.38;;;;;;;14.04;100.00;102249.53;10456707;28;20055;-75
2021/09/07 00:35:28;;;;;;;16.10;11.43;;;;;;;14.04;100.00;102234.81;10456639;28;20053;-75
2021/09/07 00:40:29;;;;;;;17.60;12.10;;;;;;;14.11;100.00;102227.13;10457807;28;20397;-75
2021/09/07 00:45:31;;;;;;;16.92;12.95;;;;;;;14.12;100.00;102226.28;10457591;28;20056;-74
2021/09/07 00:50:32;;;;;;;21.77;14.50;;;;;;;14.15;100.00;102227.25;10456150;28;20048;-75
2021/09/07 00:55:34;;;;;;;17.65;13.23;;;;;;;14.15;100.00;102231.56;10456374;28;20489;-75
2021/09/07 01:00:36;;;;;;;19.67;13.43;;;;;;;14.18;100.00;102229.00;10456512;28;20052;-74
2021/09/07 01:05:37;;;;;;;16.25;12.48;;;;;;;14.20;100.00;102225.63;10455687;28;20055;-74
2021/09/07 01:10:39;;;;;;;19.95;13.73;;;;;;;14.17;100.00;102219.47;10454568;28;20045;-74
2021/09/07 01:15:41;;;;;;;21.85;13.52;;;;;;;14.13;100.00;102228.06;10450489;28;20099;-75
2021/09/07 01:20:43;;;;;;;20.55;13.85;;;;;;;14.09;100.00;102215.81;10452847;28;20060;-74
2021/09/07 01:25:44;;;;;;;16.23;12.88;;;;;;;14.05;100.00;102218.34;10454849;28;20363;-74
2021/09/07 01:30:46;;;;;;;16.73;12.00;;;;;;;13.97;100.00;102213.81;10453325;28;20041;-74
2021/09/07 01:35:47;;;;;;;14.93;12.18;;;;;;;13.89;100.00;102216.22;10454792;28;20531;-75
2021/09/07 01:40:49;;;;;;;21.85;12.75;;;;;;;13.80;100.00;102223.81;10454300;28;20052;-74
2021/09/07 01:45:52;;;;;;;14.70;12.20;;;;;;;13.75;100.00;102230.63;10454163;28;20052;-75
2021/09/07 01:50:54;;;;;;;17.52;12.70;;;;;;;13.62;100.00;102236.41;10453975;28;20049;-74
2021/09/07 01:55:55;;;;;;;17.75;12.95;;;;;;;13.60;100.00;102240.66;10454916;28;20056;-75
2021/09/07 02:00:57;;;;;;;18.77;14.77;;;;;;;13.56;100.00;102237.13;10453633;28;20048;-74
2021/09/07 02:05:59;;;;;;;16.63;12.88;;;;;;;13.51;100.00;102239.59;10454863;28;20095;-75
2021/09/07 02:11:01;;;;;;;18.88;13.32;;;;;;;13.57;100.00;102236.28;10454204;28;20049;-74
2021/09/07 02:16:03;;;;;;;18.42;13.43;;;;;;;13.55;100.00;102231.84;10446428;28;20048;-75
2021/09/07 02:21:05;;;;;;;16.85;13.20;;;;;;;13.57;100.00;102235.41;10457015;28;20044;-74
2021/09/07 02:26:06;;;;;;;18.30;13.10;;;;;;;13.57;100.00;102231.06;10460973;28;20068;-74
2021/09/07 02:31:08;;;;;;;18.67;13.80;;;;;;;13.59;100.00;102228.50;10461096;28;20045;-74
2021/09/07 02:36:09;;;;;;;16.48;12.77;;;;;;;13.61;100.00;102232.00;10462009;28;20114;-75
2021/09/07 02:41:11;;;;;;;15.90;12.20;;;;;;;13.58;100.00;102214.63;10461998;28;20053;-74
2021/09/07 02:46:13;;;;;;;19.33;13.80;;;;;;;13.64;100.00;102216.50;10462073;28;20118;-74
2021/09/07 02:51:14;;;;;;;19.08;12.77;;;;;;;13.66;100.00;102217.41;10460467;28;20045;-74
2021/09/07 02:56:16;;;;;;;18.77;13.32;;;;;;;13.59;100.00;102218.97;10461777;28;20049;-75
2021/09/07 03:01:17;;;;;;;19.90;12.48;;;;;;;13.62;100.00;102226.88;10460019;28;20499;-74
2021/09/07 03:06:19;;;;;;;15.95;11.43;;;;;;;13.60;100.00;102214.66;10461191;28;20528;-74
2021/09/07 03:11:21;;;;;;;15.43;11.82;;;;;;;13.72;100.00;102218.41;10461147;28;20045;-74
2021/09/07 03:16:23;;;;;;;15.88;11.98;;;;;;;13.76;100.00;102220.25;10459624;28;20053;-74
2021/09/07 03:21:25;;;;;;;16.40;12.07;;;;;;;13.76;100.00;102214.19;10462590;28;20405;-74
2021/09/07 03:26:27;;;;;;;18.50;13.45;;;;;;;13.69;100.00;102202.75;10459039;28;20060;-74
2021/09/07 03:31:29;;;;;;;17.52;12.48;;;;;;;13.68;100.00;102198.41;10458360;28;20045;-74
2021/09/07 03:36:30;;;;;;;17.70;12.25;;;;;;;13.59;100.00;102211.19;10458967;28;20052;-74
2021/09/07 03:41:32;;;;;;;18.52;12.32;;;;;;;13.57;100.00;102206.78;10459747;28;20110;-75
2021/09/07 03:46:34;;;;;;;17.75;12.05;;;;;;;13.52;100.00;102201.47;10458348;28;20489;-74
2021/09/07 03:51:36;;;;;;;16.70;12.07;;;;;;;13.43;100.00;102196.91;10457928;28;20067;-74
2021/09/07 03:56:37;;;;;;;15.48;12.65;;;;;;;13.40;100.00;102202.06;10459150;28;20107;-74
2021/09/07 04:01:39;;;;;;;18.02;11.70;;;;;;;13.27;100.00;102199.97;10457738;28;20053;-74
2021/09/07 04:06:41;;;;;;;17.50;11.80;;;;;;;13.20;100.00;102204.09;10453157;28;20087;-74
2021/09/07 04:11:42;;;;;;;13.02;11.57;;;;;;;13.11;100.00;102203.00;10458932;28;20094;-73
2021/09/07 04:16:44;;;;;;;17.67;11.93;;;;;;;13.03;100.00;102205.38;10458162;28;20490;-74
2021/09/07 04:21:46;;;;;;;18.58;12.25;;;;;;;13.00;100.00;102194.91;10459897;28;20098;-74
2021/09/07 04:26:47;;;;;;;16.23;12.52;;;;;;;12.84;100.00;102200.53;10457431;28;20049;-74
2021/09/07 04:31:49;;;;;;;19.83;12.77;;;;;;;12.81;100.00;102196.13;10457708;28;20053;-74
2021/09/07 04:36:51;;;;;;;16.08;12.73;;;;;;;12.77;100.00;102206.41;10429548;28;20053;-76
2021/09/07 04:41:52;;;;;;;16.63;12.25;;;;;;;12.73;100.00;102200.22;10440750;28;20052;-73
2021/09/07 04:46:54;;;;;;;17.27;12.80;;;;;;;12.60;100.00;102214.59;10448446;28;20486;-73
2021/09/07 04:51:55;;;;;;;16.23;11.95;;;;;;;12.64;100.00;102215.53;10455244;28;20052;-73
2021/09/07 04:56:57;;;;;;;16.52;12.73;;;;;;;12.56;100.00;102209.25;10456355;28;20056;-73
2021/09/07 05:01:58;;;;;;;18.08;11.95;;;;;;;12.57;100.00;102213.59;10454075;28;20393;-73
2021/09/07 05:07:00;;;;;;;17.48;11.88;;;;;;;12.53;100.00;102216.94;10455717;28;20045;-73
2021/09/07 05:12:02;;;;;;;18.67;12.73;;;;;;;12.44;100.00;102225.34;10455440;28;20045;-73
2021/09/07 05:17:04;;;;;;;16.95;12.15;;;;;;;12.41;100.00;102231.31;10453041;28;20798;-74
2021/09/07 05:22:06;;;;;;;15.48;11.55;;;;;;;12.42;100.00;102227.00;10454999;28;20045;-74
2021/09/07 05:27:08;;;;;;;14.93;10.90;;;;;;;12.42;100.00;102234.78;10453822;28;20041;-75
2021/09/07 05:32:10;;;;;;;15.77;11.82;;;;;;;12.45;100.00;102238.38;10456132;28;20071;-74
2021/09/07 05:37:12;;;;;;;16.70;12.30;;;;;;;12.44;100.00;102240.94;10455037;28;20057;-74
2021/09/07 05:42:14;;;;;;;16.80;11.85;;;;;;;12.40;100.00;102234.75;10453780;28;20049;-74
2021/09/07 05:47:15;;;;;;;16.02;11.88;;;;;;;12.36;100.00;102237.22;10451593;28;20481;-73
2021/09/07 05:52:17;;;;;;;17.08;11.98;;;;;;;12.36;100.00;102239.81;10452973;28;20060;-74
2021/09/07 05:57:18;;;;;;;14.43;11.05;;;;;;;12.41;100.00;102241.69;10454419;28;20053;-75
2021/09/07 06:02:21;;;;;;;14.93;11.75;;;;;;;12.50;100.00;102243.72;10452324;28;20053;-73
2021/09/07 06:07:22;;;;;;;16.88;12.05;;;;;;;12.69;100.00;102232.13;10444522;28;20053;-74
2021/09/07 06:12:24;;;;;;;17.48;12.43;;;;;;;12.94;100.00;102232.00;10452170;28;20060;-74
2021/09/07 06:17:26;;;;;;;15.35;11.77;;;;;;;13.31;100.00;102238.19;10454343;28;20049;-74
2021/09/07 06:22:27;;;;;;;12.57;10.70;;;;;;;13.75;100.00;102238.44;10398198;28;20049;-75
2021/09/07 06:27:30;;;;;;;15.93;12.68;;;;;;;13.87;100.00;102236.13;10442491;28;20049;-76
2021/09/07 06:32:32;;;;;;;17.77;13.30;;;;;;;14.03;100.00;102237.38;10453142;28;20053;-75
2021/09/07 06:37:34;;;;;;;21.67;14.77;;;;;;;14.19;100.00;102242.09;10453113;28;20064;-74
2021/09/07 06:42:35;;;;;;;18.63;12.55;;;;;;;14.34;100.00;102238.94;10453898;28;20037;-74
2021/09/07 06:47:37;;;;;;;19.08;13.82;;;;;;;14.52;100.00;102249.81;10451545;28;20053;-75
2021/09/07 06:52:38;;;;;;;22.80;15.48;;;;;;;14.65;99.75;102247.44;10452111;28;20037;-74
2021/09/07 06:57:40;;;;;;;22.83;15.18;;;;;;;14.80;99.29;102234.72;10451263;28;20060;-74
2021/09/07 07:02:42;;;;;;;22.48;15.93;;;;;;;14.99;99.31;102230.75;10452999;28;20056;-74
2021/09/07 07:07:43;;;;;;;19.88;14.50;;;;;;;15.17;98.43;102228.47;10453340;28;20069;-74
2021/09/07 07:12:45;;;;;;;24.17;14.20;;;;;;;15.37;98.44;102237.56;10458077;28;20053;-74
2021/09/07 07:17:46;;;;;;;22.80;13.77;;;;;;;15.59;98.44;102233.56;10446423;28;20071;-74
2021/09/07 07:22:48;;;;;;;22.90;15.50;;;;;;;15.77;96.80;102233.03;10459043;28;20049;-74
2021/09/07 07:27:49;;;;;;;21.80;14.43;;;;;;;15.95;97.66;102235.03;10460816;28;20152;-74
2021/09/07 07:32:51;;;;;;;21.15;14.15;;;;;;;16.22;98.41;102244.13;10457470;28;20045;-74
2021/09/07 07:37:53;;;;;;;30.67;18.08;;;;;;;16.42;94.47;102253.13;10458662;28;20057;-74
2021/09/07 07:42:54;;;;;;;25.77;15.95;;;;;;;16.66;95.41;102247.31;10458904;28;20045;-74
2021/09/07 07:47:56;;;;;;;37.97;22.83;;;;;;;16.98;88.63;102255.59;10458130;28;20063;-74
2021/09/07 07:53:02;;;;;;;34.10;22.98;;;;;;;17.28;89.13;102256.75;10460106;28;20436;-74
2021/09/07 07:58:03;;;;;;;35.13;23.60;;;;;;;17.43;89.34;102254.31;10458311;28;20052;-74
2021/09/07 08:03:05;;;;;;;39.15;27.25;;;;;;;17.80;84.88;102247.66;10459512;28;20067;-74
2021/09/07 08:08:10;;;;;;;54.03;37.40;;;;;;;18.13;82.29;102259.25;10457754;28;20040;-75
2021/09/07 08:13:12;;;;;;;61.50;41.35;;;;;;;18.18;80.79;102261.03;10456300;28;20401;-75
2021/09/07 08:18:13;;;;;;;59.97;40.13;;;;;;;18.29;82.68;102263.72;10457408;28;20057;-75
2021/09/07 08:23:15;;;;;;;48.38;33.50;;;;;;;18.61;79.31;102273.50;10458176;28;20060;-75
2021/09/07 08:28:17;;;;;;;39.67;28.13;;;;;;;18.63;78.41;102267.38;10457635;28;20052;-75
2021/09/07 08:33:19;;;;;;;40.53;27.80;;;;;;;18.81;77.78;102277.09;10456383;28;20049;-75
2021/09/07 08:38:21;;;;;;;39.95;26.25;;;;;;;18.91;78.30;102283.28;10454614;28;20049;-75
2021/09/07 08:43:26;;;;;;;36.28;26.23;;;;;;;19.30;76.66;102278.13;10454862;28;20532;-75
2021/09/07 08:48:28;;;;;;;31.88;24.42;;;;;;;19.21;77.64;102283.34;10452526;28;20059;-74
2021/09/07 08:53:29;;;;;;;35.63;25.02;;;;;;;19.59;76.72;102269.44;10453977;28;20060;-75
2021/09/07 08:58:31;;;;;;;31.67;22.65;;;;;;;19.80;74.69;102269.44;10454319;28;20053;-74
2021/09/07 09:03:32;;;;;;;27.90;20.65;;;;;;;19.81;72.89;102265.94;10451013;28;20049;-76
2021/09/07 09:08:35;;;;;;;26.27;18.25;;;;;;;20.19;71.47;102259.75;10451953;28;20384;-75
2021/09/07 09:13:56;;;;;;;28.48;19.50;;;;;;;20.21;69.43;102257.13;10453603;28;20060;-75
2021/09/07 09:18:57;;;;;;;25.50;17.17;;;;;;;20.29;68.85;102263.22;10457887;28;20048;-75
2021/09/07 09:24:18;;;;;;;25.23;16.35;;;;;;;20.64;68.29;102257.88;10456182;28;20056;-76
2021/09/07 09:29:26;;;;;;;22.10;15.50;;;;;;;20.72;66.63;102263.13;10454905;28;20452;-74
2021/09/07 09:34:29;;;;;;;27.63;17.20;;;;;;;20.98;67.59;102261.22;10454845;28;20056;-76
2021/09/07 09:39:35;;;;;;;29.27;17.45;;;;;;;21.24;66.84;102254.94;10454305;28;20053;-75
2021/09/07 09:44:37;;;;;;;23.27;15.68;;;;;;;21.31;64.31;102257.53;10454993;28;20056;-75
2021/09/07 09:49:39;;;;;;;19.08;14.38;;;;;;;21.59;58.41;102252.94;10454327;28;20052;-75
2021/09/07 09:54:42;;;;;;;19.05;14.45;;;;;;;21.95;56.78;102246.47;10455743;28;20066;-75
2021/09/07 09:59:45;;;;;;;21.98;15.05;;;;;;;22.35;56.93;102253.09;10455318;28;20045;-75
2021/09/07 10:04:47;;;;;;;21.95;15.25;;;;;;;22.34;59.48;102249.59;10453737;28;20053;-76
2021/09/07 10:09:49;;;;;;;18.60;14.30;;;;;;;23.01;55.79;102245.25;10453302;28;20045;-76
2021/09/07 10:15:21;;;;;;;22.63;15.07;;;;;;;23.41;55.63;102242.00;10469630;28;20142;-74
2021/09/07 10:20:46;;;;;;;20.27;15.00;;;;;;;23.24;56.24;102235.22;10453247;28;20056;-75
2021/09/07 10:25:56;;;;;;;19.00;15.73;;;;;;;24.71;50.68;102223.72;10455392;28;20052;-75
2021/09/07 10:31:17;;;;;;;21.92;15.45;;;;;;;24.04;53.58;102228.59;10454820;28;20433;-74
2021/09/07 10:36:22;;;;;;;18.38;14.32;;;;;;;25.06;50.58;102217.66;10453183;28;20481;-74
2021/09/07 10:41:43;;;;;;;18.15;14.63;;;;;;;24.52;52.09;102217.97;10451528;28;20041;-74
2021/09/07 10:46:49;;;;;;;17.60;14.90;;;;;;;25.31;49.42;102213.53;10453985;28;20049;-75
2021/09/07 10:52:25;;;;;;;20.83;15.30;;;;;;;25.01;50.30;102217.72;10462317;28;20045;-75
2021/09/07 10:57:43;;;;;;;20.88;16.70;;;;;;;25.00;47.55;102204.53;10461565;28;20045;-74
2021/09/07 11:02:55;;;;;;;21.48;18.20;;;;;;;25.50;47.12;102200.66;10461177;28;20080;-75
2021/09/07 11:08:05;;;;;;;22.38;15.57;;;;;;;24.88;50.19;102194.22;10459575;28;20140;-74
2021/09/07 11:13:08;;;;;;;19.13;15.13;;;;;;;25.01;52.13;102193.88;10454308;28;20060;-75
2021/09/07 11:18:24;;;;;;;18.98;15.57;;;;;;;25.54;47.25;102177.63;10448853;28;20052;-74
2021/09/07 11:23:31;;;;;;;18.60;15.10;;;;;;;25.88;46.22;102178.47;10455644;28;20091;-76
2021/09/07 11:28:36;;;;;;;16.10;13.88;;;;;;;25.55;48.75;102176.69;10457472;28;20501;-75
2021/09/07 11:33:43;;;;;;;18.65;14.45;;;;;;;25.49;47.68;102179.50;10458527;28;20060;-74
2021/09/07 11:38:49;;;;;;;16.55;14.40;;;;;;;25.80;46.88;102161.91;10459069;28;20053;-75
2021/09/07 11:43:55;;;;;;;18.60;15.02;;;;;;;24.96;49.41;102171.97;10459044;28;20049;-73
2021/09/07 11:49:05;;;;;;;23.15;16.75;;;;;;;25.28;47.58;102168.53;10454794;28;20056;-73
2021/09/07 11:54:08;;;;;;;17.92;13.63;;;;;;;25.82;47.37;102172.47;10453902;28;20048;-74
2021/09/07 11:59:14;;;;;;;17.83;14.45;;;;;;;25.20;45.61;102162.56;10455640;28;20053;-74
2021/09/07 12:04:18;;;;;;;13.77;12.27;;;;;;;25.94;46.98;102163.31;10454874;28;20059;-75
2021/09/07 12:09:30;;;;;;;13.98;12.55;;;;;;;25.68;47.17;102161.34;10446361;28;20041;-74
2021/09/07 12:14:46;;;;;;;15.85;12.90;;;;;;;25.92;46.40;102159.81;10454969;28;20067;-75
2021/09/07 12:19:50;;;;;;;21.13;12.63;;;;;;;25.74;47.79;102158.53;10456203;28;20045;-74
2021/09/07 12:25:01;;;;;;;15.02;12.70;;;;;;;26.10;46.32;102162.84;10454103;28;20103;-74
2021/09/07 12:30:11;;;;;;;14.93;11.98;;;;;;;25.83;47.39;102155.66;10453673;28;20452;-74
2021/09/07 12:35:35;;;;;;;20.80;13.68;;;;;;;25.92;46.32;102147.41;10454890;28;20060;-74
2021/09/07 12:40:39;;;;;;;15.88;12.20;;;;;;;25.79;47.22;102154.84;10456742;28;20135;-74
2021/09/07 12:45:55;;;;;;;14.52;11.98;;;;;;;25.49;47.23;102151.22;10454673;28;20041;-73
2021/09/07 12:50:58;;;;;;;14.02;12.05;;;;;;;25.75;46.13;102141.72;10453356;28;20133;-73
2021/09/07 12:56:01;;;;;;;17.17;12.50;;;;;;;25.59;47.75;102139.47;10451825;28;20048;-74
2021/09/07 13:01:05;;;;;;;17.70;12.63;;;;;;;25.54;47.67;102122.81;10453690;28;20056;-73
2021/09/07 13:06:09;;;;;;;15.98;12.77;;;;;;;25.50;48.43;102128.25;10455863;28;20110;-74
2021/09/07 13:11:15;;;;;;;15.77;12.48;;;;;;;25.73;47.71;102119.66;10455363;28;20052;-73
2021/09/07 13:16:17;;;;;;;16.08;12.50;;;;;;;25.72;47.42;102110.84;10455766;28;20045;-75
2021/09/07 13:21:20;;;;;;;16.25;12.35;;;;;;;25.57;47.38;102098.84;10457098;28;20083;-74
2021/09/07 13:26:21;;;;;;;13.70;12.02;;;;;;;25.56;47.34;102104.22;10455347;28;20080;-74
2021/09/07 13:31:23;;;;;;;15.20;12.43;;;;;;;25.83;46.89;102095.53;10454016;28;20067;-73
2021/09/07 13:36:25;;;;;;;15.40;11.35;;;;;;;25.64;47.57;102091.63;10454562;28;20060;-73
2021/09/07 13:41:27;;;;;;;17.15;12.70;;;;;;;25.33;49.04;102091.59;10454699;28;20049;-73
2021/09/07 13:46:28;;;;;;;13.80;11.90;;;;;;;25.41;48.39;102086.06;10454634;28;20516;-73
2021/09/07 13:51:31;;;;;;;13.98;11.45;;;;;;;25.40;48.09;102074.59;10454604;28;20048;-73
2021/09/07 13:56:33;;;;;;;16.63;11.75;;;;;;;25.12;48.71;102066.50;10469986;28;20053;-74
2021/09/07 14:01:34;;;;;;;16.13;10.18;;;;;;;25.34;48.20;102069.47;10452827;28;20668;-73
2021/09/07 14:06:36;;;;;;;12.25;10.38;;;;;;;25.17;49.19;102058.47;10452881;28;20095;-73
2021/09/07 14:11:38;;;;;;;13.60;10.98;;;;;;;25.18;49.52;102066.34;10453763;28;20460;-73
2021/09/07 14:16:40;;;;;;;17.10;12.60;;;;;;;24.99;48.98;102054.47;10449061;28;20057;-73
2021/09/07 14:21:41;;;;;;;14.50;11.05;;;;;;;24.97;49.39;102051.00;10461654;28;20049;-74
2021/09/07 14:26:43;;;;;;;13.45;9.88;;;;;;;25.08;51.32;102051.63;10460936;28;20053;-73
2021/09/07 14:31:44;;;;;;;12.57;9.98;;;;;;;24.78;51.18;102040.88;10460929;28;20056;-73
2021/09/07 14:36:46;;;;;;;10.43;8.90;;;;;;;24.88;50.32;102036.22;10461688;28;20110;-73
2021/09/07 14:41:48;;;;;;;13.88;8.52;;;;;;;24.84;49.91;102039.84;10460687;28;20044;-74
2021/09/07 14:46:49;;;;;;;9.77;8.60;;;;;;;24.85;49.82;102028.38;10461647;28;20092;-73
2021/09/07 14:51:51;;;;;;;10.60;8.20;;;;;;;24.72;50.60;102019.84;10459851;28;20051;-72
2021/09/07 14:56:53;;;;;;;9.80;8.07;;;;;;;24.64;50.54;102018.31;10452339;28;20053;-72
2021/09/07 15:01:54;;;;;;;11.15;8.00;;;;;;;24.59;50.76;102015.78;10459812;28;20425;-73
2021/09/07 15:06:56;;;;;;;11.35;9.02;;;;;;;24.52;51.25;102016.84;10460305;28;20547;-72
2021/09/07 15:11:58;;;;;;;10.10;7.65;;;;;;;24.47;50.97;102013.44;10459219;28;20049;-73
2021/09/07 15:16:59;;;;;;;9.15;7.80;;;;;;;24.49;51.62;102012.47;10445403;28;20413;-73
2021/09/07 15:22:01;;;;;;;10.48;9.48;;;;;;;24.28;51.57;102016.50;10461617;28;20049;-73
2021/09/07 15:27:03;;;;;;;9.77;7.78;;;;;;;24.36;51.35;102005.75;10459068;28;20045;-72
2021/09/07 15:32:05;;;;;;;7.70;6.88;;;;;;;24.16;51.48;102003.53;10458395;28;20048;-73
2021/09/07 15:37:07;;;;;;;9.73;7.32;;;;;;;24.15;51.31;102011.50;10458358;28;20068;-73
2021/09/07 15:42:09;;;;;;;12.52;8.38;;;;;;;24.13;52.78;102000.97;10457853;28;20060;-73
2021/09/07 15:47:11;;;;;;;8.32;6.70;;;;;;;24.14;52.31;102000.06;10457923;28;20057;-73
2021/09/07 15:52:13;;;;;;;8.88;7.80;;;;;;;24.04;51.23;101998.53;10459453;28;20064;-73
2021/09/07 15:57:20;;;;;;;9.63;7.72;;;;;;;24.01;52.58;101991.53;10458642;28;20053;-73
2021/09/07 16:02:21;;;;;;;10.32;7.20;;;;;;;23.86;52.39;101985.72;10457413;28;20044;-73
2021/09/07 16:07:23;;;;;;;7.50;6.55;;;;;;;23.90;52.49;101984.75;10457762;28;20487;-73
2021/09/07 16:12:25;;;;;;;9.00;6.75;;;;;;;23.86;52.70;101991.00;10458737;28;20045;-73
2021/09/07 16:17:27;;;;;;;7.18;5.55;;;;;;;23.82;53.28;101984.03;10458638;28;20049;-73
2021/09/07 16:22:28;;;;;;;8.88;6.20;;;;;;;23.69;52.86;101984.31;10459141;28;20486;-73
2021/09/07 16:27:30;;;;;;;5.95;5.18;;;;;;;23.86;53.23;101983.94;10455431;28;20128;-74
2021/09/07 16:32:31;;;;;;;6.65;5.93;;;;;;;23.63;53.11;101976.50;10457371;28;20059;-75
2021/09/07 16:37:33;;;;;;;7.38;6.53;;;;;;;23.58;53.84;101978.34;10452365;28;20061;-73
2021/09/07 16:42:35;;;;;;;8.48;7.03;;;;;;;23.40;53.87;101971.69;10454833;28;20049;-72
2021/09/07 16:47:39;;;;;;;11.82;6.03;;;;;;;23.42;54.27;101961.94;10456098;28;20421;-74
2021/09/07 16:52:47;;;;;;;7.72;6.10;;;;;;;23.27;54.37;101965.78;10456916;28;20076;-74
2021/09/07 16:57:54;;;;;;;7.15;6.20;;;;;;;23.44;54.36;101964.56;10455113;28;20098;-74
2021/09/07 17:02:55;;;;;;;7.18;5.78;;;;;;;23.22;55.88;101957.06;10457021;28;20495;-73
2021/09/07 17:08:08;;;;;;;8.13;5.95;;;;;;;23.16;55.84;101951.06;10455396;28;20064;-74
2021/09/07 17:13:12;;;;;;;6.20;5.60;;;;;;;23.05;56.20;101953.03;10454292;28;20079;-73
2021/09/07 17:18:13;;;;;;;8.90;6.78;;;;;;;23.04;56.21;101949.53;10442626;28;20052;-73
2021/09/07 17:23:15;;;;;;;8.93;6.18;;;;;;;22.78;57.72;101947.31;10457309;28;20049;-73
2021/09/07 17:28:20;;;;;;;8.60;5.97;;;;;;;22.69;57.63;101940.47;10442673;28;20057;-73
2021/09/07 17:43:31;;;;;;;7.22;6.15;;;;;;;22.29;59.06;101934.97;10447237;28;20041;-74
2021/09/07 17:48:34;;;;;;;8.40;6.32;;;;;;;22.14;60.26;101928.19;10453810;28;20057;-75
2021/09/07 17:53:35;;;;;;;12.00;6.97;;;;;;;21.94;61.51;101935.47;10451754;28;20449;-78
2021/09/07 17:58:38;;;;;;;9.90;6.30;;;;;;;21.50;65.68;101933.47;10451949;28;20072;-74
2021/09/07 18:03:40;;;;;;;10.40;6.05;;;;;;;21.26;67.99;101940.75;10453952;28;20049;-77
2021/09/07 18:08:44;;;;;;;7.13;6.38;;;;;;;20.98;69.40;101941.94;10452382;28;20084;-76
2021/09/07 18:13:46;;;;;;;12.63;6.80;;;;;;;20.69;70.44;101940.47;10452711;28;20132;-76
2021/09/07 18:18:47;;;;;;;6.78;6.07;;;;;;;20.50;72.62;101944.16;10450916;28;20087;-77
2021/09/07 18:23:49;;;;;;;9.07;6.20;;;;;;;20.19;75.04;101940.88;10452407;28;20048;-79
2021/09/07 18:28:51;;;;;;;8.90;7.00;;;;;;;19.96;76.37;101948.91;10448204;28;20051;-77
2021/09/07 18:33:52;;;;;;;12.57;7.05;;;;;;;19.64;79.39;101952.59;10453339;28;20049;-78
2021/09/07 18:38:55;;;;;;;28.08;8.18;;;;;;;19.61;80.25;101951.72;10452445;28;20065;-76
2021/09/07 18:43:57;;;;;;;9.90;6.85;;;;;;;19.45;81.94;101950.88;10440236;28;20374;-73
2021/09/07 18:48:59;;;;;;;13.85;7.55;;;;;;;19.21;82.72;101951.84;10450588;28;20565;-72
2021/09/07 18:54:01;;;;;;;11.82;6.68;;;;;;;19.11;83.21;101956.25;10453017;28;20048;-74
2021/09/07 18:59:03;;;;;;;16.90;9.27;;;;;;;18.85;84.80;101960.69;10452523;28;20057;-74
2021/09/07 19:04:05;;;;;;;13.05;7.55;;;;;;;18.71;84.31;101960.69;10450018;28;20045;-72
2021/09/07 19:09:07;;;;;;;12.30;7.32;;;;;;;18.70;83.75;101961.56;10456386;28;20045;-72
2021/09/07 19:14:08;;;;;;;10.63;7.63;;;;;;;18.51;85.25;101966.78;10459348;28;20053;-72
2021/09/07 19:19:10;;;;;;;10.52;7.68;;;;;;;18.36;86.68;101966.75;10453524;28;20052;-71
2021/09/07 19:24:11;;;;;;;10.05;8.05;;;;;;;18.17;87.71;101965.88;10457308;28;20052;-72
2021/09/07 19:29:13;;;;;;;8.75;7.88;;;;;;;17.93;88.35;101960.59;10452584;28;20091;-72
2021/09/07 19:34:14;;;;;;;11.90;8.13;;;;;;;17.80;89.37;101966.66;10437723;28;20049;-72
2021/09/07 19:39:16;;;;;;;14.85;8.45;;;;;;;17.72;89.22;101966.63;10449404;28;20560;-72
2021/09/07 19:44:18;;;;;;;14.98;9.10;;;;;;;17.68;89.10;101970.94;10446387;28;20045;-72
2021/09/07 19:49:20;;;;;;;10.15;7.78;;;;;;;17.51;90.17;101963.91;10455480;28;20053;-72
2021/09/07 19:54:22;;;;;;;14.93;8.73;;;;;;;17.42;90.54;101957.78;10455458;28;20118;-74
2021/09/07 19:59:30;;;;;;;9.30;7.35;;;;;;;17.36;90.30;101952.50;10455525;28;20433;-73
2021/09/07 20:04:35;;;;;;;10.85;8.55;;;;;;;17.20;90.85;101948.94;10458952;28;20053;-73
2021/09/07 20:09:37;;;;;;;12.57;8.35;;;;;;;17.06;91.73;101950.59;10458723;28;20059;-73
2021/09/07 20:14:38;;;;;;;9.50;8.40;;;;;;;16.99;91.67;101950.56;10456488;28;20543;-73
2021/09/07 20:19:40;;;;;;;11.40;8.27;;;;;;;16.93;92.02;101948.78;10458464;28;20500;-73
2021/09/07 20:24:41;;;;;;;13.13;8.13;;;;;;;16.81;92.53;101948.69;10456884;28;20053;-73
2021/09/07 20:29:44;;;;;;;10.55;7.90;;;;;;;16.70;92.60;101945.97;10457117;28;20048;-74
2021/09/07 20:34:45;;;;;;;18.52;9.27;;;;;;;16.60;93.07;101947.63;10458236;28;20513;-72
2021/09/07 20:39:47;;;;;;;11.68;9.20;;;;;;;16.51;93.40;101944.97;10457901;28;20056;-73
2021/09/07 20:44:48;;;;;;;12.90;9.20;;;;;;;16.51;93.88;101941.47;10457551;28;20045;-72
2021/09/07 20:49:50;;;;;;;14.13;9.90;;;;;;;16.37;94.54;101933.50;10456296;28;20615;-72
2021/09/07 20:54:55;;;;;;;13.57;10.52;;;;;;;16.26;94.83;101936.03;10456189;28;20061;-71
2021/09/07 20:59:56;;;;;;;13.60;9.15;;;;;;;16.17;95.41;101936.84;10456987;28;20060;-72
2021/09/07 21:04:58;;;;;;;10.68;8.75;;;;;;;16.09;95.75;101933.25;10457483;28;20048;-73
2021/09/07 21:09:59;;;;;;;12.88;9.65;;;;;;;16.06;96.20;101933.25;10456805;28;20148;-73
2021/09/07 21:15:01;;;;;;;10.60;9.13;;;;;;;15.99;95.65;101931.41;10456116;28;20053;-73
2021/09/07 21:20:04;;;;;;;13.10;8.60;;;;;;;15.88;95.57;101927.81;10450126;28;20052;-73
2021/09/07 21:25:07;;;;;;;12.45;9.05;;;;;;;15.86;95.55;101926.94;10456706;28;20124;-73
2021/09/07 21:30:09;;;;;;;12.77;9.73;;;;;;;15.85;96.19;101930.41;10455283;28;20405;-72
2021/09/07 21:35:11;;;;;;;13.73;9.18;;;;;;;15.58;97.24;101926.59;10455972;28;20060;-72
2021/09/07 21:40:13;;;;;;;13.05;10.52;;;;;;;15.55;97.59;101930.91;10454455;28;20501;-72
2021/09/07 21:45:14;;;;;;;11.23;9.50;;;;;;;15.48;97.22;101931.66;10456058;28;20059;-72
2021/09/07 21:50:16;;;;;;;11.85;9.32;;;;;;;15.40;97.44;101921.16;10454708;28;20497;-72
2021/09/07 21:55:17;;;;;;;15.27;10.15;;;;;;;15.39;97.37;101919.41;10456143;28;20444;-72
2021/09/07 22:00:19;;;;;;;15.45;9.88;;;;;;;15.33;97.36;101919.34;10455367;28;20098;-72
2021/09/07 22:05:21;;;;;;;15.02;9.68;;;;;;;15.30;97.49;101914.06;10454215;28;20048;-72
2021/09/07 22:10:23;;;;;;;13.50;10.52;;;;;;;15.11;98.35;101916.44;10455162;28;20042;-73
2021/09/07 22:15:24;;;;;;;11.32;9.48;;;;;;;15.14;98.34;101906.91;10453487;28;20416;-72
2021/09/07 22:20:26;;;;;;;12.95;10.15;;;;;;;15.08;98.23;101905.09;10446468;28;20056;-72
2021/09/07 22:25:27;;;;;;;17.48;9.32;;;;;;;15.04;97.92;101908.53;10453724;28;20055;-72
2021/09/07 22:30:29;;;;;;;12.65;8.82;;;;;;;14.95;98.04;101905.78;10453330;28;20045;-71
2021/09/07 22:35:31;;;;;;;14.05;10.55;;;;;;;14.79;98.70;101904.69;10453371;28;20501;-71
2021/09/07 22:40:32;;;;;;;15.57;9.80;;;;;;;14.80;98.92;101903.81;10455841;28;20065;-72
2021/09/07 22:45:34;;;;;;;12.63;9.88;;;;;;;14.74;98.87;101891.59;10461857;28;20064;-71
2021/09/07 22:50:35;;;;;;;12.52;10.48;;;;;;;14.70;98.80;101894.16;10462106;28;20396;-71